Detall de PIREP

Printer-friendly versionPDF version

[2012/12/08 10:20:00]
Flight IATA:CT1005
Pilot Number:042
Company ICAO:CAT
Aircraft Type:B738/F
PAX:98
Departing Airport: LBSF
Destination Airport: LJLJ
Alternate Airport:LJMB
Online: VATSIM
Route:SOF N133 TODRO N188 OBLAK UL615 BOSNA UL608 GORPA UQ310 DOL
Flight Level:F340
No Slew and time accel
No pause
Crash detect
Detect pilot in Cockpit between each 30 and 45 minutes
10:20 Zero fuel Weight: 115600 Lbs, Fuel Weight: 46051 Lbs
10:20 VATSIM:LBSF 080930Z 10008MPS 9999 FEW022 SCT025 M00/M03 Q1011 NOSIG
10:20 VATSIM:LJLJ 081000Z 21006KT 160V280 9999 FEW010 BKN057 BKN100 M01/M04 Q1007 R30/29//95 NOSIG
10:20 VOICE CATALONIAN/EU TOUR
10:31 Parking Brakes off
10:36 Take-off
10:36 Take off Weight: 160736 Lbs
10:36 Wind: 107º @ 017 Knots Heading: 274º
10:36 POS N42º 41´ 50´´ E023º 23´ 08´´
10:37 Gear Up: 173 Knots
10:37 Flaps:5 at 173 Knots
10:37 Flaps:4 at 174 Knots
10:38 Flaps:3 at 156 Knots
10:38 Flaps:2 at 175 Knots
10:39 Flaps:1 at 190 Knots
10:39 Flaps:0 at 202 Knots
10:52 Wind:254º@065 Knots Heading: 285º Ground Speed: 404 Knots Altitude 28487 ft
10:56 TOC
10:56 Fuel Weight: 41103 Lb
11:07 Wind:244º@063 Knots Heading: 278º Ground Speed: 394 Knots Altitude 33753 ft
11:22 Wind:245º@047 Knots Heading: 304º Ground Speed: 420 Knots Altitude 33756 ft
11:31 TOD
11:31 Fuel Weight: 37623 Lb
11:37 Wind:161º@018 Knots Heading: 306º Ground Speed: 374 Knots Altitude 20639 ft
11:49 Flaps:1 at 184 Knots
11:49 Flaps:2 at 185 Knots
11:50 Flaps:3 at 183 Knots
11:50 Flaps:4 at 184 Knots
11:50 Gear Down: 183 Knots
11:50 Flaps:5 at 180 Knots
11:50 Flaps:6 at 173 Knots
11:50 Flaps:7 at 160 Knots
11:50 Flaps:8 at 151 Knots
11:52 Wind:025º@006 Knots Heading: 308º Ground Speed: 145 Knots Altitude 2139 ft
11:53 TouchDown:Rate -272 ft/min Speed: 130 Knots
11:53 VATSIM:LJLJ 081130Z 22005KT 160V260 9999 FEW010 BKN057 BKN100 M01/M04 Q1009 R30/29//95 NOSIG
11:53 Land
11:53 Wind:001º@005 Knots
11:53 Heading: 305º
11:53 Flight Duration: 01:16
11:53 Landing Weight: 152206 Lbs
11:53 POS N46º 13´ 22´´ E014º 27´ 34´´
11:55 Parking brakes on
11:55 Block to Block Duration: 01:24
11:55 Final Fuel: 36408 Lbls
11:55 Spent Fuel: 9642 Lbls
11:55 Flight Length: 451 NM
11:55 TOD Land Length: 108 NM

Exportar CSV

Powered by Drupal - Modified by Danger4k